createdAt,value
2023-04-20T00:02:24.090Z,100080.91
2023-04-20T00:04:54.104Z,100082.13
2023-04-20T00:07:24.806Z,100086.63
2023-04-20T00:09:53.145Z,100070.38
2023-04-20T00:12:21.478Z,100076.09
2023-04-20T00:14:49.958Z,100068.59
2023-04-20T00:17:18.366Z,100068.22
2023-04-20T00:19:47.285Z,100059.72
2023-04-20T00:22:17.013Z,100060.16
2023-04-20T00:24:45.339Z,100059.56
2023-04-20T00:27:13.696Z,100058.38
2023-04-20T00:29:44.508Z,100063.06
2023-04-20T00:32:12.867Z,100050.28
2023-04-20T00:34:42.142Z,100047.28
2023-04-20T00:37:10.501Z,100040.59
2023-04-20T00:39:41.239Z,100047.13
2023-04-20T00:42:10.455Z,100039.03
2023-04-20T00:44:38.808Z,100033.75
2023-04-20T00:47:07.788Z,100040.47
2023-04-20T00:49:36.228Z,100038.06
2023-04-20T00:52:04.898Z,100032.97
2023-04-20T00:54:33.564Z,100032.41
2023-04-20T00:57:05.789Z,100027.56
2023-04-20T00:59:36.443Z,100023.72
2023-04-20T01:02:04.959Z,100019.44
2023-04-20T01:04:35.065Z,100011.97
2023-04-20T01:07:03.727Z,100006.31
2023-04-20T01:09:32.049Z,100003.88
2023-04-20T01:12:02.860Z,100012.22
2023-04-20T01:14:31.201Z,99995.81
2023-04-20T01:16:59.597Z,100002.31
2023-04-20T01:19:28.123Z,100000.09
2023-04-20T01:21:56.639Z,99999.72
2023-04-20T01:24:26.403Z,99999.13
2023-04-20T01:26:54.799Z,99986.38
2023-04-20T01:29:23.325Z,99996.31
2023-04-20T01:31:51.807Z,99987.81
2023-04-20T01:34:20.222Z,99985.38
2023-04-20T01:36:48.669Z,99977.09
2023-04-20T01:39:19.065Z,99972.22
2023-04-20T01:41:50.023Z,99961.91
2023-04-20T01:44:19.246Z,99970.22
2023-04-20T01:46:47.680Z,99964.00
2023-04-20T01:49:16.291Z,99967.22
2023-04-20T01:51:44.825Z,99960.53
2023-04-20T01:54:13.147Z,99961.75
2023-04-20T01:56:41.706Z,99959.53
2023-04-20T01:59:11.486Z,99963.38
2023-04-20T02:01:39.960Z,99947.19
2023-04-20T02:04:08.431Z,99950.84
2023-04-20T02:06:36.970Z,99964.44
2023-04-20T02:09:05.436Z,99962.03
2023-04-20T02:11:36.527Z,99958.22
2023-04-20T02:14:07.564Z,99962.06
2023-04-20T02:16:37.943Z,99961.47
2023-04-20T02:19:06.806Z,99952.34
2023-04-20T02:21:35.481Z,99951.97
2023-04-20T02:24:05.325Z,99954.03
2023-04-20T02:26:33.690Z,99954.03
2023-04-20T02:29:02.026Z,99947.75
2023-04-20T02:31:30.478Z,99947.97
2023-04-20T02:34:00.167Z,99946.56
2023-04-20T02:36:29.051Z,99948.59
2023-04-20T02:38:57.399Z,99942.13
2023-04-20T02:41:25.753Z,99948.41
2023-04-20T02:43:54.174Z,99947.00
2023-04-20T02:46:22.885Z,99947.00
2023-04-20T02:48:51.557Z,99946.63
2023-04-20T02:51:21.536Z,99939.97
2023-04-20T02:53:51.245Z,99934.88
2023-04-20T02:56:29.594Z,99936.72
2023-04-20T02:59:02.862Z,99930.03
2023-04-20T03:01:44.816Z,99916.47
2023-04-20T03:04:18.196Z,99912.22
2023-04-20T03:07:09.577Z,99917.09
2023-04-20T03:09:40.045Z,99913.03
2023-04-20T03:12:34.422Z,99909.59
2023-04-20T03:15:22.731Z,99908.41
2023-04-20T03:18:02.468Z,99905.19
2023-04-20T03:20:31.346Z,99906.00
2023-04-20T03:23:01.629Z,99889.41
2023-04-20T03:25:31.096Z,99897.28
2023-04-20T03:28:08.034Z,99888.56
2023-04-20T03:30:37.515Z,99886.97
2023-04-20T03:33:11.857Z,99879.28
2023-04-20T03:35:40.305Z,99881.09
2023-04-20T03:38:10.256Z,99882.91
2023-04-20T03:40:38.724Z,99880.28
2023-04-20T03:43:07.109Z,99888.38
2023-04-20T03:45:35.483Z,99888.16
2023-04-20T03:48:04.014Z,99882.31
2023-04-20T03:50:32.402Z,99875.22
2023-04-20T03:53:00.760Z,99877.06
2023-04-20T03:55:30.511Z,99874.41
2023-04-20T03:58:06.920Z,99869.16
2023-04-20T04:00:46.394Z,99865.91
2023-04-20T04:03:16.045Z,99867.56
2023-04-20T04:05:44.491Z,99858.00
2023-04-20T04:08:12.817Z,99867.56
2023-04-20T04:10:42.686Z,99864.09
2023-04-20T04:13:11.077Z,99868.75
2023-04-20T04:15:39.450Z,99870.38
2023-04-20T04:18:12.483Z,99866.94
2023-04-20T04:20:42.451Z,99867.16
2023-04-20T04:23:12.750Z,99868.75
2023-04-20T04:25:57.224Z,99869.78
2023-04-20T04:28:27.383Z,99865.53
2023-04-20T04:31:17.419Z,99866.53
2023-04-20T04:33:46.419Z,99865.75
2023-04-20T04:36:24.240Z,99866.75
2023-04-20T04:38:52.789Z,99865.13
2023-04-20T04:41:23.520Z,99855.84
2023-04-20T04:43:52.438Z,99864.56
2023-04-20T04:46:27.693Z,99860.28
2023-04-20T04:49:01.080Z,99858.66
2023-04-20T04:51:29.616Z,99852.38
2023-04-20T04:53:57.955Z,99856.03
2023-04-20T04:56:28.519Z,99854.66
2023-04-20T04:58:56.867Z,99852.59
2023-04-20T05:01:25.229Z,99851.00
2023-04-20T05:03:53.693Z,99853.81
2023-04-20T05:06:22.123Z,99846.13
2023-04-20T05:08:50.596Z,99854.03
2023-04-20T05:11:18.961Z,99842.69
2023-04-20T05:13:49.963Z,99849.56
2023-04-20T05:16:18.365Z,99853.00
2023-04-20T05:18:46.755Z,99857.06
2023-04-20T05:21:15.047Z,99849.16
2023-04-20T05:23:44.252Z,99855.00
2023-04-20T05:26:12.561Z,99843.69
2023-04-20T05:28:40.891Z,99862.31
2023-04-20T05:31:10.691Z,99857.84
2023-04-20T05:33:39.461Z,99853.38
2023-04-20T05:36:10.954Z,99860.06
2023-04-20T05:38:39.597Z,99854.56
2023-04-20T05:41:07.927Z,99851.75
2023-04-20T05:43:36.228Z,99851.53
2023-04-20T05:46:04.922Z,99853.94
2023-04-20T05:48:34.642Z,99841.59
2023-04-20T05:51:02.993Z,99836.13
2023-04-20T05:53:31.381Z,99852.53
2023-04-20T05:55:59.695Z,99843.78
2023-04-20T05:58:28.453Z,99849.44
2023-04-20T06:00:56.866Z,99846.63
2023-04-20T06:03:25.503Z,99850.06
2023-04-20T06:05:55.447Z,99854.91
2023-04-20T06:08:23.861Z,99856.53
2023-04-20T06:10:56.012Z,99853.69
2023-04-20T06:13:24.398Z,99857.94
2023-04-20T06:15:52.923Z,99857.94
2023-04-20T06:18:21.477Z,99859.53
2023-04-20T06:20:49.842Z,99848.78
2023-04-20T06:23:19.638Z,99866.41
2023-04-20T06:25:47.987Z,99861.75
2023-04-20T06:28:16.397Z,99861.75
2023-04-20T06:30:44.762Z,99860.16
2023-04-20T06:33:17.130Z,99852.25
2023-04-20T06:35:45.506Z,99849.41
2023-04-20T06:38:13.863Z,99850.81
2023-04-20T06:40:43.569Z,99842.69
2023-04-20T06:43:12.052Z,99841.47
2023-04-20T06:45:40.410Z,99830.94
2023-04-20T06:48:20.174Z,99832.75
2023-04-20T06:50:57.516Z,99827.25
2023-04-20T06:53:28.006Z,99828.69
2023-04-20T06:55:58.499Z,99838.00
2023-04-20T06:58:26.836Z,99835.94
2023-04-20T07:00:55.193Z,99838.75
2023-04-20T07:03:24.348Z,99841.78
2023-04-20T07:05:52.852Z,99839.88
2023-04-20T07:08:21.969Z,99834.78
2023-04-20T07:10:50.298Z,99834.75
2023-04-20T07:13:20.014Z,99833.69
2023-04-20T07:15:48.343Z,99824.09
2023-04-20T07:18:16.726Z,99818.75
2023-04-20T07:20:45.248Z,99825.84
2023-04-20T07:23:13.589Z,99823.59
2023-04-20T07:25:42.019Z,99821.34
2023-04-20T07:28:10.496Z,99819.06
2023-04-20T07:30:40.271Z,99814.19
2023-04-20T07:33:09.245Z,99809.28
2023-04-20T07:35:37.979Z,99807.81
2023-04-20T07:38:06.330Z,99809.59
2023-04-20T07:40:34.648Z,99806.28
2023-04-20T07:43:03.879Z,99808.63
2023-04-20T07:45:32.206Z,99804.91
2023-04-20T07:48:02.547Z,99810.91
2023-04-20T07:50:30.913Z,99800.72
2023-04-20T07:52:59.246Z,99802.69
2023-04-20T07:55:27.861Z,99807.72
2023-04-20T07:57:56.187Z,99801.75
2023-04-20T08:00:25.612Z,99808.56
2023-04-20T08:02:54.236Z,99804.25
2023-04-20T08:05:25.110Z,99793.81
2023-04-20T08:07:53.594Z,99803.72
2023-04-20T08:10:22.153Z,99792.50
2023-04-20T08:12:52.589Z,99782.28
2023-04-20T08:15:21.211Z,99788.31
2023-04-20T08:17:49.560Z,99783.75
2023-04-20T08:20:18.359Z,99776.97
2023-04-20T08:22:49.309Z,99780.78
2023-04-20T08:25:18.204Z,99779.03
2023-04-20T08:27:46.473Z,99771.50
2023-04-20T08:30:15.417Z,99778.53
2023-04-20T08:32:43.724Z,99765.44
2023-04-20T08:35:12.189Z,99767.44
2023-04-20T08:37:41.897Z,99766.50
2023-04-20T08:40:13.144Z,99765.63
2023-04-20T08:42:41.450Z,99761.81
2023-04-20T08:45:10.355Z,99772.31
2023-04-20T08:47:38.785Z,99765.31
2023-04-20T08:50:09.760Z,99767.81
2023-04-20T08:52:39.721Z,99771.41
2023-04-20T08:55:09.368Z,99758.75
2023-04-20T08:57:39.019Z,99754.84
2023-04-20T09:00:13.820Z,99751.50
2023-04-20T09:02:51.677Z,99754.28
2023-04-20T09:05:28.262Z,99744.03
2023-04-20T09:07:58.732Z,99739.88
2023-04-20T09:10:29.014Z,99743.44
2023-04-20T09:12:58.663Z,99744.03
2023-04-20T09:15:28.661Z,99734.38
2023-04-20T09:17:57.402Z,99729.41
2023-04-20T09:20:31.684Z,99732.41
2023-04-20T09:23:11.921Z,99734.56
2023-04-20T09:25:41.133Z,99728.81
2023-04-20T09:28:11.516Z,99727.28
2023-04-20T09:30:41.490Z,99709.91
2023-04-20T09:33:12.212Z,99717.38
2023-04-20T09:35:42.253Z,99722.00
2023-04-20T09:38:12.601Z,99719.72
2023-04-20T09:40:40.970Z,99718.44
2023-04-20T09:43:15.577Z,99713.72
2023-04-20T09:45:44.946Z,99713.47
2023-04-20T09:48:17.058Z,99711.94
2023-04-20T09:50:49.783Z,99713.66
2023-04-20T09:53:20.502Z,99709.28
2023-04-20T09:55:50.478Z,99706.47
2023-04-20T09:58:21.840Z,99700.72
2023-04-20T10:00:51.048Z,99696.31
2023-04-20T10:03:20.361Z,99698.84
2023-04-20T10:05:49.428Z,99696.25
2023-04-20T10:08:19.030Z,99692.88
2023-04-20T10:10:49.693Z,99697.50
2023-04-20T10:13:19.516Z,99697.81
2023-04-20T10:15:49.813Z,99702.63
2023-04-20T10:18:21.254Z,99693.66
2023-04-20T10:20:49.904Z,99694.19
2023-04-20T10:23:19.948Z,99690.53
2023-04-20T10:25:58.626Z,99681.75
2023-04-20T10:28:27.127Z,99683.22
2023-04-20T10:30:56.877Z,99686.19
2023-04-20T10:33:25.262Z,99678.78
2023-04-20T10:35:57.794Z,99676.72
2023-04-20T10:38:33.593Z,99670.91
2023-04-20T10:41:08.289Z,99678.38
2023-04-20T10:43:39.007Z,99663.84
2023-04-20T10:46:19.804Z,99665.22
2023-04-20T10:48:56.076Z,99659.78
2023-04-20T10:51:25.081Z,99676.00
2023-04-20T10:54:01.756Z,99659.56
2023-04-20T10:56:38.068Z,99664.41
2023-04-20T10:59:10.370Z,99657.38
2023-04-20T11:01:41.016Z,99665.38
2023-04-20T11:04:10.562Z,99654.56
2023-04-20T11:06:40.718Z,99650.84
2023-04-20T11:09:20.310Z,99654.03
2023-04-20T11:11:59.441Z,99654.63
2023-04-20T11:14:27.853Z,99659.44
2023-04-20T11:16:57.698Z,99649.88
2023-04-20T11:19:28.831Z,99642.94
2023-04-20T11:21:57.656Z,99637.63
2023-04-20T11:24:27.782Z,99636.34
2023-04-20T11:26:57.996Z,99641.41
2023-04-20T11:29:31.980Z,99634.28
2023-04-20T11:32:04.071Z,99645.44
2023-04-20T11:34:32.840Z,99631.38
2023-04-20T11:37:06.556Z,99628.72
2023-04-20T11:39:35.583Z,99617.03
2023-04-20T11:42:04.172Z,99618.41
2023-04-20T11:44:33.085Z,99608.91
2023-04-20T11:47:03.988Z,99607.63
2023-04-20T11:49:32.475Z,99607.44
2023-04-20T11:52:01.243Z,99606.13
2023-04-20T11:54:32.329Z,99606.69
2023-04-20T11:57:00.839Z,99609.91
2023-04-20T11:59:29.244Z,99617.38
2023-04-20T12:01:57.657Z,99615.28
2023-04-20T12:04:28.237Z,99628.56
2023-04-20T12:06:58.364Z,99631.22
2023-04-20T12:09:26.967Z,99626.13
2023-04-20T12:11:55.395Z,99624.53
2023-04-20T12:14:23.761Z,99618.69
2023-04-20T12:16:52.181Z,99629.63
2023-04-20T12:19:20.775Z,99613.69
2023-04-20T12:21:50.570Z,99618.75
2023-04-20T12:24:19.072Z,99621.69
2023-04-20T12:26:47.719Z,99628.38
2023-04-20T12:29:16.503Z,99631.56
2023-04-20T12:31:45.261Z,99628.69
2023-04-20T12:34:13.862Z,99616.22
2023-04-20T12:36:42.269Z,99626.25
2023-04-20T12:39:12.108Z,99617.50
2023-04-20T12:41:42.273Z,99624.41
2023-04-20T12:44:11.517Z,99624.41
2023-04-20T12:46:40.021Z,99624.41
2023-04-20T12:49:08.430Z,99620.16
2023-04-20T12:51:36.887Z,99619.91
2023-04-20T12:54:05.326Z,99635.84
2023-04-20T12:56:35.121Z,99626.25
2023-04-20T12:59:03.488Z,99624.41
2023-04-20T13:01:31.885Z,99636.66
2023-04-20T13:04:00.525Z,99623.38
2023-04-20T13:06:29.076Z,99623.38
2023-04-20T13:08:57.402Z,99628.91
2023-04-20T13:11:27.181Z,99624.41
2023-04-20T13:13:58.109Z,99629.19
2023-04-20T13:16:26.903Z,99632.31
2023-04-20T13:18:55.340Z,99632.81
2023-04-20T13:21:23.730Z,99640.22
2023-04-20T13:23:54.046Z,99634.03
2023-04-20T13:26:23.257Z,99621.25
2023-04-20T13:28:51.630Z,99639.53
2023-04-20T13:31:21.477Z,99640.56
2023-04-20T13:33:54.451Z,99647.16
2023-04-20T13:36:23.045Z,99646.06
2023-04-20T13:38:54.611Z,99641.00
2023-04-20T13:41:23.998Z,99630.63
2023-04-20T13:43:52.636Z,99633.75
2023-04-20T13:46:22.585Z,99640.38
2023-04-20T13:48:50.977Z,99636.09
2023-04-20T13:51:19.384Z,99637.41
2023-04-20T13:53:49.065Z,99628.66
2023-04-20T13:56:17.902Z,99630.25
2023-04-20T13:58:46.381Z,99613.53
2023-04-20T14:01:16.585Z,99619.38
2023-04-20T14:03:46.533Z,99613.28
2023-04-20T14:06:15.188Z,99611.19
2023-04-20T14:08:43.602Z,99614.38
2023-04-20T14:11:11.998Z,99616.50
2023-04-20T14:13:41.143Z,99611.19
2023-04-20T14:16:11.002Z,99614.88
2023-04-20T14:18:39.750Z,99615.72
2023-04-20T14:21:09.535Z,99596.56
2023-04-20T14:23:38.203Z,99601.88
2023-04-20T14:26:07.164Z,99606.88
2023-04-20T14:28:35.926Z,99612.44
2023-04-20T14:31:04.728Z,99612.13
2023-04-20T14:33:33.124Z,99606.25
2023-04-20T14:36:15.550Z,99610.97
2023-04-20T14:38:44.081Z,99615.47
2023-04-20T14:41:12.419Z,99611.47
2023-04-20T14:43:40.879Z,99611.47
2023-04-20T14:46:09.347Z,99611.22
2023-04-20T14:48:38.162Z,99615.47
2023-04-20T14:51:06.864Z,99619.75
2023-04-20T14:53:36.677Z,99609.94
2023-04-20T14:56:05.487Z,99600.94
2023-04-20T14:58:34.001Z,99607.03
2023-04-20T15:01:02.479Z,99603.31
2023-04-20T15:03:31.224Z,99613.94
2023-04-20T15:06:03.606Z,99604.63
2023-04-20T15:08:31.956Z,99601.41
2023-04-20T15:11:02.098Z,99603.00
2023-04-20T15:13:30.617Z,99600.94
2023-04-20T15:15:59.404Z,99592.19
2023-04-20T15:18:27.989Z,99574.97
2023-04-20T15:20:56.469Z,99580.28
2023-04-20T15:23:25.114Z,99581.31
2023-04-20T15:25:54.083Z,99592.19
2023-04-20T15:28:23.817Z,99597.22
2023-04-20T15:30:52.268Z,99593.22
2023-04-20T15:33:20.763Z,99600.66
2023-04-20T15:35:50.449Z,99596.19
2023-04-20T15:38:18.873Z,99593.78
2023-04-20T15:40:47.598Z,99586.63
2023-04-20T15:43:15.984Z,99608.72
2023-04-20T15:45:45.774Z,99606.06
2023-04-20T15:48:14.241Z,99607.34
2023-04-20T15:50:42.716Z,99603.63
2023-04-20T15:53:11.198Z,99610.31
2023-04-20T15:55:40.113Z,99615.41
2023-04-20T15:58:08.538Z,99609.25
2023-04-20T16:00:37.158Z,99619.66
2023-04-20T16:03:07.050Z,99628.09
2023-04-20T16:05:35.790Z,99629.38
2023-04-20T16:08:05.412Z,99633.34
2023-04-20T16:10:34.188Z,99631.91
2023-04-20T16:13:03.582Z,99632.38
2023-04-20T16:15:32.153Z,99633.63
2023-04-20T16:18:00.662Z,99631.22
2023-04-20T16:20:30.532Z,99622.13
2023-04-20T16:22:58.834Z,99620.00
2023-04-20T16:25:28.497Z,99609.06
2023-04-20T16:27:56.891Z,99613.00
2023-04-20T16:30:25.340Z,99608.19
2023-04-20T16:32:53.677Z,99614.84
2023-04-20T16:35:22.675Z,99612.19
2023-04-20T16:37:52.420Z,99613.81
2023-04-20T16:40:21.869Z,99612.19
2023-04-20T16:42:50.199Z,99606.81
2023-04-20T16:45:18.983Z,99610.03
2023-04-20T16:47:47.745Z,99611.63
2023-04-20T16:50:19.659Z,99617.66
2023-04-20T16:52:48.886Z,99623.78
2023-04-20T16:55:18.978Z,99607.78
2023-04-20T16:57:47.502Z,99619.75
2023-04-20T17:00:17.669Z,99625.84
2023-04-20T17:02:46.225Z,99627.94
2023-04-20T17:05:14.944Z,99627.63
2023-04-20T17:07:43.436Z,99623.59
2023-04-20T17:10:12.404Z,99622.59
2023-04-20T17:12:42.448Z,99621.22
2023-04-20T17:15:12.256Z,99619.09
2023-04-20T17:17:43.676Z,99637.91
2023-04-20T17:20:12.950Z,99625.94
2023-04-20T17:22:41.393Z,99615.59
2023-04-20T17:25:11.014Z,99626.19
2023-04-20T17:27:39.532Z,99635.41
2023-04-20T17:30:11.945Z,99633.50
2023-04-20T17:32:40.434Z,99633.38
2023-04-20T17:35:09.778Z,99638.69
2023-04-20T17:37:38.728Z,99645.31
2023-04-20T17:40:09.273Z,99657.97
2023-04-20T17:42:37.661Z,99653.94
2023-04-20T17:45:09.357Z,99650.16
2023-04-20T17:47:37.938Z,99668.16
2023-04-20T17:50:08.259Z,99671.28
2023-04-20T17:52:36.685Z,99668.72
2023-04-20T17:55:06.112Z,99670.56
2023-04-20T17:57:34.696Z,99669.03
2023-04-20T18:00:05.045Z,99665.38
2023-04-20T18:02:41.772Z,99661.59
2023-04-20T18:05:11.187Z,99676.78
2023-04-20T18:07:42.333Z,99673.53
2023-04-20T18:10:13.577Z,99673.53
2023-04-20T18:12:41.966Z,99674.34
2023-04-20T18:15:11.713Z,99683.09
2023-04-20T18:17:42.361Z,99678.03
2023-04-20T18:20:11.916Z,99682.06
2023-04-20T18:22:40.493Z,99685.75
2023-04-20T18:25:10.006Z,99679.91
2023-04-20T18:27:38.502Z,99676.66
2023-04-20T18:30:09.168Z,99681.63
2023-04-20T18:32:38.574Z,99683.41
2023-04-20T18:35:11.004Z,99675.22
2023-04-20T18:37:43.935Z,99668.06
2023-04-20T18:40:15.480Z,99660.38
2023-04-20T18:42:44.717Z,99677.06
2023-04-20T18:45:13.382Z,99680.97
2023-04-20T18:47:44.592Z,99681.47
2023-04-20T18:50:15.314Z,99683.28
2023-04-20T18:52:43.969Z,99697.59
2023-04-20T18:55:12.434Z,99692.53
2023-04-20T18:57:48.681Z,99694.63
2023-04-20T19:00:17.870Z,99693.22
2023-04-20T19:02:46.381Z,99701.50
2023-04-20T19:05:16.355Z,99694.06
2023-04-20T19:07:46.180Z,99702.22
2023-04-20T19:10:14.556Z,99706.63
2023-04-20T19:12:43.118Z,99712.16
2023-04-20T19:15:12.482Z,99711.81
2023-04-20T19:17:41.989Z,99708.63
2023-04-20T19:20:11.680Z,99709.88
2023-04-20T19:22:41.437Z,99709.88
2023-04-20T19:25:10.190Z,99705.38
2023-04-20T19:27:38.579Z,99706.19
2023-04-20T19:30:08.851Z,99694.47
2023-04-20T19:32:37.333Z,99713.13
2023-04-20T19:35:08.836Z,99712.88
2023-04-20T19:37:37.252Z,99708.63
2023-04-20T19:40:08.598Z,99713.59
2023-04-20T19:42:37.542Z,99722.09
2023-04-20T19:45:07.364Z,99729.34
2023-04-20T19:47:36.077Z,99713.66
2023-04-20T19:50:04.719Z,99706.78
2023-04-20T19:52:34.417Z,99708.16
2023-04-20T19:55:03.941Z,99714.47
2023-04-20T19:57:33.794Z,99721.16
2023-04-20T20:00:02.337Z,99710.81
2023-04-20T20:02:41.756Z,99715.84
2023-04-20T20:05:12.450Z,99708.97
2023-04-20T20:07:43.899Z,99702.03
2023-04-20T20:10:12.367Z,99688.56
2023-04-20T20:12:42.329Z,99699.97
2023-04-20T20:15:10.843Z,99703.31
2023-04-20T20:17:39.332Z,99711.03
2023-04-20T20:20:12.245Z,99713.66
2023-04-20T20:22:49.771Z,99699.63
2023-04-20T20:25:20.001Z,99682.69
2023-04-20T20:27:50.597Z,99681.81
2023-04-20T20:30:19.480Z,99700.09
2023-04-20T20:32:47.998Z,99707.25
2023-04-20T20:35:16.562Z,99706.19
2023-04-20T20:37:45.484Z,99701.94
2023-04-20T20:40:14.840Z,99698.50
2023-04-20T20:42:45.105Z,99709.09
2023-04-20T20:45:18.270Z,99709.31
2023-04-20T20:47:47.141Z,99709.09
2023-04-20T20:50:18.078Z,99707.50
2023-04-20T20:52:46.643Z,99710.94
2023-04-20T20:55:15.361Z,99708.50
2023-04-20T20:57:43.831Z,99704.25
2023-04-20T21:00:14.676Z,99704.25
2023-04-20T21:02:43.304Z,99704.25
2023-04-20T21:05:12.370Z,99698.16
2023-04-20T21:07:41.409Z,99668.44
2023-04-20T21:10:11.796Z,99688.84
2023-04-20T21:12:40.492Z,99691.72
2023-04-20T21:15:10.419Z,99684.59
2023-04-20T21:17:40.281Z,99683.78
2023-04-20T21:20:10.627Z,99677.69
2023-04-20T21:22:39.072Z,99676.06
2023-04-20T21:25:08.896Z,99674.47
2023-04-20T21:27:37.337Z,99671.69
2023-04-20T21:30:10.240Z,99674.56
2023-04-20T21:32:41.390Z,99678.25
2023-04-20T21:35:11.044Z,99675.81
2023-04-20T21:37:39.504Z,99677.13
2023-04-20T21:40:10.178Z,99673.44
2023-04-20T21:42:38.578Z,99677.47
2023-04-20T21:45:08.288Z,99677.69
2023-04-20T21:47:36.726Z,99678.47
2023-04-20T21:50:07.585Z,99676.41
2023-04-20T21:52:36.138Z,99674.56
2023-04-20T21:55:04.594Z,99668.47
2023-04-20T21:57:33.107Z,99665.56
2023-04-20T22:00:01.479Z,99669.88
2023-04-20T22:02:29.994Z,99660.91
2023-04-20T22:04:58.394Z,99668.84
2023-04-20T22:07:28.122Z,99665.38
2023-04-20T22:09:56.487Z,99659.03
2023-04-20T22:12:38.321Z,99660.66
2023-04-20T22:15:13.513Z,99664.34
2023-04-20T22:17:46.601Z,99661.69
2023-04-20T22:20:21.662Z,99662.50
2023-04-20T22:22:51.543Z,99656.41
2023-04-20T22:25:19.973Z,99653.75
2023-04-20T22:27:48.495Z,99653.53
2023-04-20T22:30:16.901Z,99657.19
2023-04-20T22:32:45.459Z,99655.59
2023-04-20T22:35:13.831Z,99663.53
2023-04-20T22:37:42.309Z,99663.53
2023-04-20T22:40:14.154Z,99662.13
2023-04-20T22:42:43.515Z,99655.47
2023-04-20T22:45:12.860Z,99657.28
2023-04-20T22:47:41.956Z,99656.28
2023-04-20T22:50:12.224Z,99652.84
2023-04-20T22:52:40.716Z,99654.66
2023-04-20T22:55:13.336Z,99651.66
2023-04-20T22:57:41.803Z,99645.34
2023-04-20T23:00:13.585Z,99651.13
2023-04-20T23:02:42.332Z,99657.47
2023-04-20T23:05:11.645Z,99644.69
2023-04-20T23:07:45.370Z,99653.91
2023-04-20T23:10:16.344Z,99648.84
2023-04-20T23:12:48.091Z,99656.78
2023-04-20T23:15:16.430Z,99655.41
2023-04-20T23:17:44.881Z,99667.84
2023-04-20T23:20:15.149Z,99668.56
2023-04-20T23:22:46.442Z,99672.22
2023-04-20T23:25:16.123Z,99676.16
2023-04-20T23:27:44.458Z,99684.31
2023-04-20T23:30:14.061Z,99686.41
2023-04-20T23:32:44.290Z,99685.00
2023-04-20T23:35:13.004Z,99678.34
2023-04-20T23:37:41.418Z,99678.56
2023-04-20T23:40:11.981Z,99670.31
2023-04-20T23:42:42.045Z,99675.00
2023-04-20T23:45:11.929Z,99682.41
2023-04-20T23:47:40.335Z,99677.31
2023-04-20T23:50:10.357Z,99674.34
2023-04-20T23:52:38.728Z,99669.50
2023-04-20T23:55:08.107Z,99673.44
2023-04-20T23:57:36.512Z,99665.72
